createdAt,value
2019-01-15T00:00:56.577Z,99.99
2019-01-15T00:01:56.554Z,99.99
2019-01-15T00:02:56.530Z,99.99
2019-01-15T00:03:56.518Z,99.99
2019-01-15T00:04:56.494Z,99.99
2019-01-15T00:05:56.478Z,99.99
2019-01-15T00:06:56.456Z,99.99
2019-01-15T00:07:56.440Z,99.99
2019-01-15T00:08:56.413Z,99.99
2019-01-15T00:09:56.395Z,99.99
2019-01-15T00:10:56.373Z,99.99
2019-01-15T00:11:56.358Z,99.99
2019-01-15T00:12:56.340Z,99.99
2019-01-15T00:13:56.316Z,99.99
2019-01-15T00:14:56.294Z,99.99
2019-01-15T00:15:56.269Z,99.99
2019-01-15T00:16:56.253Z,99.99
2019-01-15T00:17:56.237Z,99.99
2019-01-15T00:18:56.211Z,99.99
2019-01-15T00:19:56.194Z,99.99
2019-01-15T00:20:56.179Z,99.99
2019-01-15T00:21:56.159Z,99.99
2019-01-15T00:22:56.134Z,99.99
2019-01-15T00:23:56.114Z,99.99
2019-01-15T00:24:56.100Z,99.99
2019-01-15T00:25:56.081Z,99.99
2019-01-15T00:26:56.055Z,99.99
2019-01-15T00:27:56.036Z,99.99
2019-01-15T00:28:56.015Z,99.99
2019-01-15T00:29:55.993Z,99.99
2019-01-15T00:30:55.972Z,99.99
2019-01-15T00:31:55.952Z,99.99
2019-01-15T00:32:55.929Z,99.99
2019-01-15T00:33:55.913Z,99.99
2019-01-15T00:34:55.889Z,99.99
2019-01-15T00:35:55.869Z,99.99
2019-01-15T00:36:55.853Z,99.99
2019-01-15T00:37:55.829Z,99.99
2019-01-15T00:38:55.810Z,99.99
2019-01-15T00:39:55.792Z,99.99
2019-01-15T00:40:55.771Z,99.99
2019-01-15T00:41:55.754Z,99.99
2019-01-15T00:42:55.730Z,99.99
2019-01-15T00:43:55.712Z,99.94
2019-01-15T00:44:55.687Z,99.80
2019-01-15T00:45:55.672Z,99.99
2019-01-15T00:46:55.647Z,99.99
2019-01-15T00:47:55.627Z,99.99
2019-01-15T00:48:55.611Z,99.99
2019-01-15T00:49:55.588Z,99.99
2019-01-15T00:50:55.569Z,99.99
2019-01-15T00:51:55.547Z,99.99
2019-01-15T00:52:55.521Z,99.99
2019-01-15T00:53:55.510Z,99.99
2019-01-15T00:54:55.487Z,98.85
2019-01-15T00:55:55.473Z,98.66
2019-01-15T00:56:55.449Z,97.72
2019-01-15T00:57:55.426Z,97.81
2019-01-15T00:58:55.405Z,98.10
2019-01-15T00:59:55.387Z,98.76
2019-01-15T01:00:55.365Z,98.66
2019-01-15T01:01:55.344Z,98.28
2019-01-15T01:02:55.326Z,98.00
2019-01-15T01:03:55.306Z,97.63
2019-01-15T01:04:55.282Z,97.81
2019-01-15T01:05:55.265Z,97.44
2019-01-15T01:06:55.249Z,97.25
2019-01-15T01:07:55.224Z,97.34
2019-01-15T01:08:55.212Z,97.72
2019-01-15T01:09:55.188Z,97.53
2019-01-15T01:10:55.164Z,96.87
2019-01-15T01:11:55.145Z,96.30
2019-01-15T01:12:55.125Z,96.11
2019-01-15T01:13:55.095Z,95.54
2019-01-15T01:14:55.088Z,91.39
2019-01-15T01:15:55.067Z,89.40
2019-01-15T01:16:55.044Z,88.08
2019-01-15T01:17:55.027Z,87.23
2019-01-15T01:18:55.008Z,87.51
2019-01-15T01:19:54.990Z,87.42
2019-01-15T01:20:54.968Z,88.65
2019-01-15T01:21:54.947Z,89.59
2019-01-15T01:22:54.930Z,90.82
2019-01-15T01:23:54.909Z,91.96
2019-01-15T01:24:54.885Z,92.24
2019-01-15T01:25:54.867Z,93.47
2019-01-15T01:26:54.845Z,93.28
2019-01-15T01:27:54.826Z,94.13
2019-01-15T01:28:54.805Z,93.56
2019-01-15T01:29:54.787Z,93.47
2019-01-15T01:30:54.769Z,93.56
2019-01-15T01:31:54.749Z,94.32
2019-01-15T01:32:54.724Z,94.41
2019-01-15T01:33:54.707Z,94.32
2019-01-15T01:34:54.686Z,95.26
2019-01-15T01:35:54.666Z,94.89
2019-01-15T01:36:54.649Z,95.17
2019-01-15T01:37:54.627Z,95.26
2019-01-15T01:38:54.606Z,94.98
2019-01-15T01:39:54.585Z,95.17
2019-01-15T01:40:54.565Z,94.41
2019-01-15T01:41:54.548Z,94.41
2019-01-15T01:42:54.529Z,94.32
2019-01-15T01:43:54.509Z,94.51
2019-01-15T01:44:54.489Z,94.41
2019-01-15T01:45:54.463Z,94.22
2019-01-15T01:46:54.446Z,93.56
2019-01-15T01:47:54.429Z,93.47
2019-01-15T01:48:54.413Z,92.90
2019-01-15T01:49:54.386Z,92.99
2019-01-15T01:50:54.372Z,93.56
2019-01-15T01:51:54.349Z,93.56
2019-01-15T01:52:54.328Z,94.22
2019-01-15T01:53:54.314Z,93.56
2019-01-15T01:54:54.289Z,92.99
2019-01-15T01:55:54.270Z,92.80
2019-01-15T01:56:54.251Z,92.80
2019-01-15T01:57:54.229Z,93.56
2019-01-15T01:58:54.211Z,93.37
2019-01-15T01:59:54.194Z,93.28
2019-01-15T02:00:54.167Z,93.47
2019-01-15T02:01:54.154Z,93.94
2019-01-15T02:02:54.128Z,94.22
2019-01-15T02:03:54.112Z,94.03
2019-01-15T02:04:54.094Z,94.03
2019-01-15T02:05:54.070Z,94.22
2019-01-15T02:06:54.048Z,93.84
2019-01-15T02:07:54.028Z,94.22
2019-01-15T02:08:54.015Z,94.03
2019-01-15T02:09:53.993Z,94.70
2019-01-15T02:10:53.973Z,94.22
2019-01-15T02:11:53.955Z,94.98
2019-01-15T02:12:53.937Z,95.07
2019-01-15T02:13:53.915Z,95.73
2019-01-15T02:14:53.904Z,95.92
2019-01-15T02:15:53.877Z,96.21
2019-01-15T02:16:53.858Z,96.40
2019-01-15T02:17:53.838Z,96.87
2019-01-15T02:18:53.820Z,96.68
2019-01-15T02:19:53.801Z,97.15
2019-01-15T02:20:53.779Z,97.06
2019-01-15T02:21:53.759Z,97.53
2019-01-15T02:22:53.741Z,97.15
2019-01-15T02:23:53.717Z,98.19
2019-01-15T02:24:53.700Z,97.63
2019-01-15T02:25:53.678Z,97.91
2019-01-15T02:26:53.663Z,98.10
2019-01-15T02:27:53.682Z,97.91
2019-01-15T02:28:53.619Z,98.57
2019-01-15T02:29:53.599Z,98.28
2019-01-15T02:30:53.587Z,99.42
2019-01-15T02:31:53.564Z,99.33
2019-01-15T02:32:53.545Z,99.61
2019-01-15T02:33:53.523Z,99.23
2019-01-15T02:34:53.503Z,99.42
2019-01-15T02:35:53.481Z,99.42
2019-01-15T02:36:53.464Z,98.95
2019-01-15T02:37:53.441Z,99.14
2019-01-15T02:38:53.424Z,99.42
2019-01-15T02:39:53.405Z,99.14
2019-01-15T02:40:53.383Z,99.23
2019-01-15T02:41:53.362Z,99.37
2019-01-15T02:42:53.340Z,99.14
2019-01-15T02:43:53.323Z,99.99
2019-01-15T02:44:53.305Z,99.99
2019-01-15T02:45:53.281Z,99.99
2019-01-15T02:46:53.270Z,99.99
2019-01-15T02:47:53.251Z,99.99
2019-01-15T02:48:53.227Z,99.99
2019-01-15T02:49:53.203Z,99.99
2019-01-15T02:50:53.182Z,99.99
2019-01-15T02:51:53.172Z,99.99
2019-01-15T02:52:53.141Z,99.99
2019-01-15T02:53:53.125Z,99.99
2019-01-15T02:54:53.107Z,99.99
2019-01-15T02:55:53.083Z,99.99
2019-01-15T02:56:53.064Z,99.99
2019-01-15T02:57:53.043Z,99.99
2019-01-15T02:58:53.029Z,99.99
2019-01-15T02:59:53.006Z,99.99
2019-01-15T03:00:52.987Z,99.99
2019-01-15T03:01:52.967Z,99.80
2019-01-15T03:02:52.961Z,99.61
2019-01-15T03:03:52.921Z,99.14
2019-01-15T03:04:52.905Z,99.42
2019-01-15T03:05:52.887Z,98.76
2019-01-15T03:06:52.865Z,98.85
2019-01-15T03:07:52.847Z,99.23
2019-01-15T03:08:52.834Z,98.95
2019-01-15T03:09:52.808Z,99.33
2019-01-15T03:10:52.786Z,99.80
2019-01-15T03:11:52.768Z,99.99
2019-01-15T03:12:56.711Z,99.71
2019-01-15T03:13:52.731Z,99.99
2019-01-15T03:14:52.711Z,99.99
2019-01-15T03:15:52.706Z,99.99
2019-01-15T03:16:52.670Z,99.99
2019-01-15T03:17:52.650Z,99.99
2019-01-15T03:18:52.629Z,99.99
2019-01-15T03:19:52.607Z,99.99
2019-01-15T03:20:52.587Z,99.99
2019-01-15T03:21:52.572Z,99.99
2019-01-15T03:22:52.555Z,99.99
2019-01-15T03:23:52.532Z,99.75
2019-01-15T03:24:52.510Z,99.99
2019-01-15T03:25:52.490Z,99.99
2019-01-15T03:26:52.467Z,99.99
2019-01-15T03:27:52.451Z,99.99
2019-01-15T03:28:52.437Z,99.99
2019-01-15T03:29:52.411Z,99.99
2019-01-15T03:30:52.402Z,99.99
2019-01-15T03:31:52.369Z,99.99
2019-01-15T03:32:52.351Z,99.99
2019-01-15T03:33:52.333Z,99.99
2019-01-15T03:34:52.308Z,99.71
2019-01-15T03:35:52.290Z,99.80
2019-01-15T03:36:52.271Z,99.52
2019-01-15T03:37:52.255Z,98.38
2019-01-15T03:38:52.233Z,97.72
2019-01-15T03:39:52.212Z,97.44
2019-01-15T03:40:52.192Z,97.06
2019-01-15T03:41:52.169Z,97.06
2019-01-15T03:42:52.156Z,97.15
2019-01-15T03:43:52.136Z,97.44
2019-01-15T03:44:52.117Z,97.53
2019-01-15T03:45:52.094Z,97.34
2019-01-15T03:46:52.076Z,97.15
2019-01-15T03:47:52.062Z,97.91
2019-01-15T03:48:52.036Z,98.10
2019-01-15T03:49:52.013Z,97.81
2019-01-15T03:50:51.995Z,98.19
2019-01-15T03:51:51.979Z,97.34
2019-01-15T03:52:51.951Z,97.53
2019-01-15T03:53:51.939Z,97.34
2019-01-15T03:54:51.923Z,97.53
2019-01-15T03:55:51.898Z,97.72
2019-01-15T03:56:51.878Z,98.00
2019-01-15T03:57:51.868Z,98.00
2019-01-15T03:58:51.837Z,98.66
2019-01-15T03:59:51.821Z,98.57
2019-01-15T04:00:51.797Z,98.66
2019-01-15T04:01:51.782Z,98.28
2019-01-15T04:02:51.760Z,98.10
2019-01-15T04:03:51.744Z,98.10
2019-01-15T04:04:51.723Z,98.00
2019-01-15T04:05:51.702Z,98.19
2019-01-15T04:06:51.679Z,97.53
2019-01-15T04:07:51.663Z,97.81
2019-01-15T04:08:51.644Z,97.91
2019-01-15T04:09:51.628Z,97.91
2019-01-15T04:10:51.605Z,97.81
2019-01-15T04:11:51.588Z,98.10
2019-01-15T04:12:51.565Z,97.72
2019-01-15T04:13:51.548Z,97.91
2019-01-15T04:14:51.525Z,98.00
2019-01-15T04:15:51.506Z,97.63
2019-01-15T04:16:51.489Z,96.87
2019-01-15T04:17:51.470Z,97.34
2019-01-15T04:18:51.453Z,97.34
2019-01-15T04:19:51.432Z,97.81
2019-01-15T04:20:51.405Z,98.38
2019-01-15T04:21:51.390Z,98.10
2019-01-15T04:22:51.372Z,98.00
2019-01-15T04:23:51.350Z,97.53
2019-01-15T04:24:51.330Z,98.10
2019-01-15T04:25:51.322Z,98.19
2019-01-15T04:26:51.295Z,98.28
2019-01-15T04:27:51.274Z,98.19
2019-01-15T04:28:51.257Z,98.76
2019-01-15T04:29:51.235Z,98.57
2019-01-15T04:30:51.219Z,98.66
2019-01-15T04:31:51.195Z,98.66
2019-01-15T04:32:51.175Z,97.53
2019-01-15T04:33:51.159Z,97.25
2019-01-15T04:34:51.135Z,97.34
2019-01-15T04:35:51.122Z,96.87
2019-01-15T04:36:51.097Z,96.96
2019-01-15T04:37:51.159Z,96.96
2019-01-15T04:38:51.070Z,97.25
2019-01-15T04:39:51.042Z,96.96
2019-01-15T04:40:51.022Z,96.78
2019-01-15T04:41:51.002Z,96.78
2019-01-15T04:42:50.982Z,96.49
2019-01-15T04:43:50.964Z,96.59
2019-01-15T04:44:50.941Z,97.15
2019-01-15T04:45:50.924Z,97.06
2019-01-15T04:46:50.904Z,97.06
2019-01-15T04:47:50.893Z,97.34
2019-01-15T04:48:50.865Z,96.96
2019-01-15T04:49:50.844Z,97.06
2019-01-15T04:50:50.822Z,97.34
2019-01-15T04:51:50.804Z,96.96
2019-01-15T04:52:50.786Z,96.68
2019-01-15T04:53:50.768Z,96.87
2019-01-15T04:54:50.748Z,96.96
2019-01-15T04:55:50.724Z,96.87
2019-01-15T04:56:50.710Z,96.87
2019-01-15T04:57:50.683Z,96.87
2019-01-15T04:58:50.676Z,96.30
2019-01-15T04:59:50.652Z,96.02
2019-01-15T05:00:50.631Z,95.45
2019-01-15T05:01:50.610Z,95.45
2019-01-15T05:02:50.597Z,95.73
2019-01-15T05:03:50.574Z,95.45
2019-01-15T05:04:50.557Z,95.83
2019-01-15T05:05:50.534Z,95.83
2019-01-15T05:06:50.516Z,96.02
2019-01-15T05:07:50.590Z,95.64
2019-01-15T05:08:50.475Z,96.02
2019-01-15T05:09:50.459Z,95.92
2019-01-15T05:10:50.438Z,95.83
2019-01-15T05:11:50.417Z,95.92
2019-01-15T05:12:50.398Z,95.64
2019-01-15T05:13:50.377Z,95.73
2019-01-15T05:14:50.360Z,95.54
2019-01-15T05:15:50.341Z,96.59
2019-01-15T05:16:50.321Z,96.49
2019-01-15T05:17:50.299Z,96.21
2019-01-15T05:18:50.283Z,96.30
2019-01-15T05:19:50.259Z,96.49
2019-01-15T05:20:50.243Z,96.40
2019-01-15T05:21:50.224Z,96.68
2019-01-15T05:22:50.216Z,97.06
2019-01-15T05:23:50.183Z,96.68
2019-01-15T05:24:50.163Z,96.59
2019-01-15T05:25:50.145Z,96.30
2019-01-15T05:26:50.125Z,96.49
2019-01-15T05:27:50.106Z,95.83
2019-01-15T05:28:50.086Z,94.98
2019-01-15T05:29:50.070Z,95.73
2019-01-15T05:30:50.049Z,95.54
2019-01-15T05:31:50.027Z,95.54
2019-01-15T05:32:50.056Z,95.17
2019-01-15T05:33:49.992Z,95.45
2019-01-15T05:34:49.968Z,95.36
2019-01-15T05:35:49.958Z,95.26
2019-01-15T05:36:49.930Z,96.21
2019-01-15T05:37:49.913Z,96.49
2019-01-15T05:38:49.906Z,96.40
2019-01-15T05:39:49.874Z,96.40
2019-01-15T05:40:49.858Z,96.21
2019-01-15T05:41:49.838Z,96.49
2019-01-15T05:42:49.815Z,96.87
2019-01-15T05:43:49.791Z,97.15
2019-01-15T05:44:49.777Z,96.87
2019-01-15T05:45:49.760Z,96.87
2019-01-15T05:46:49.740Z,96.78
2019-01-15T05:47:49.716Z,96.87
2019-01-15T05:48:49.700Z,96.78
2019-01-15T05:49:50.786Z,96.87
2019-01-15T05:50:49.659Z,96.96
2019-01-15T05:51:49.636Z,96.87
2019-01-15T05:52:49.622Z,96.49
2019-01-15T05:53:49.603Z,96.68
2019-01-15T05:54:49.579Z,97.44
2019-01-15T05:55:49.565Z,97.72
2019-01-15T05:56:49.549Z,97.63
2019-01-15T05:57:49.525Z,97.91
2019-01-15T05:58:49.505Z,98.00
2019-01-15T05:59:49.485Z,97.81
2019-01-15T06:00:49.467Z,97.81
2019-01-15T06:01:49.449Z,97.15
2019-01-15T06:02:50.899Z,97.44
2019-01-15T06:03:49.406Z,97.06
2019-01-15T06:04:49.392Z,96.96
2019-01-15T06:05:49.367Z,96.40
2019-01-15T06:06:49.353Z,96.87
2019-01-15T06:07:49.331Z,96.78
2019-01-15T06:08:49.314Z,96.49
2019-01-15T06:09:49.290Z,96.11
2019-01-15T06:10:49.273Z,96.49
2019-01-15T06:11:49.256Z,96.21
2019-01-15T06:12:49.232Z,96.40
2019-01-15T06:13:49.214Z,95.54
2019-01-15T06:14:49.188Z,95.64
2019-01-15T06:15:49.181Z,96.49
2019-01-15T06:16:49.156Z,96.30
2019-01-15T06:17:49.139Z,96.40
2019-01-15T06:18:49.111Z,96.11
2019-01-15T06:19:49.097Z,96.11
2019-01-15T06:20:49.082Z,96.11
2019-01-15T06:21:49.059Z,96.21
2019-01-15T06:22:49.079Z,96.02
2019-01-15T06:23:49.018Z,96.30
2019-01-15T06:24:49.001Z,96.21
2019-01-15T06:25:48.983Z,96.59
2019-01-15T06:26:48.963Z,96.49
2019-01-15T06:27:48.932Z,96.40
2019-01-15T06:28:48.925Z,96.49
2019-01-15T06:29:48.905Z,96.49
2019-01-15T06:30:48.884Z,96.40
2019-01-15T06:31:48.864Z,96.21
2019-01-15T06:32:48.844Z,96.02
2019-01-15T06:33:48.830Z,96.59
2019-01-15T06:34:48.807Z,95.64
2019-01-15T06:35:48.790Z,95.92
2019-01-15T06:36:48.779Z,96.11
2019-01-15T06:37:48.750Z,95.83
2019-01-15T06:38:48.728Z,95.92
2019-01-15T06:39:48.706Z,95.83
2019-01-15T06:40:48.687Z,95.64
2019-01-15T06:41:48.671Z,95.36
2019-01-15T06:42:48.654Z,95.17
2019-01-15T06:43:50.186Z,94.70
2019-01-15T06:44:48.613Z,94.60
2019-01-15T06:45:48.593Z,94.60
2019-01-15T06:46:48.573Z,94.70
2019-01-15T06:47:48.550Z,94.79
2019-01-15T06:48:48.535Z,95.36
2019-01-15T06:49:48.510Z,95.45
2019-01-15T06:50:48.495Z,95.73
2019-01-15T06:51:48.474Z,95.36
2019-01-15T06:52:48.453Z,95.36
2019-01-15T06:53:48.436Z,95.17
2019-01-15T06:54:48.422Z,94.70
2019-01-15T06:55:48.403Z,95.17
2019-01-15T06:56:48.378Z,95.17
2019-01-15T06:57:48.359Z,95.26
2019-01-15T06:58:48.339Z,94.89
2019-01-15T06:59:48.321Z,94.98
2019-01-15T07:00:48.305Z,94.89
2019-01-15T07:01:48.290Z,94.79
2019-01-15T07:02:48.262Z,95.17
2019-01-15T07:03:48.243Z,95.17
2019-01-15T07:04:48.219Z,95.17
2019-01-15T07:05:48.208Z,95.26
2019-01-15T07:06:48.182Z,94.79
2019-01-15T07:07:48.170Z,94.98
2019-01-15T07:08:48.141Z,94.98
2019-01-15T07:09:48.128Z,94.98
2019-01-15T07:10:48.109Z,94.32
2019-01-15T07:11:48.089Z,92.99
2019-01-15T07:12:48.074Z,93.09
2019-01-15T07:13:48.244Z,91.96
2019-01-15T07:14:48.031Z,91.77
2019-01-15T07:15:48.010Z,91.58
2019-01-15T07:16:47.992Z,92.24
2019-01-15T07:17:47.972Z,92.43
2019-01-15T07:18:47.952Z,93.18
2019-01-15T07:19:47.934Z,93.28
2019-01-15T07:20:47.916Z,94.32
2019-01-15T07:21:47.899Z,94.13
2019-01-15T07:22:47.877Z,94.51
2019-01-15T07:23:47.859Z,94.51
2019-01-15T07:24:47.840Z,94.98
2019-01-15T07:25:47.819Z,95.17
2019-01-15T07:26:47.799Z,94.89
2019-01-15T07:27:47.783Z,94.98
2019-01-15T07:28:47.761Z,94.98
2019-01-15T07:29:47.738Z,94.32
2019-01-15T07:30:47.722Z,94.03
2019-01-15T07:31:47.704Z,93.37
2019-01-15T07:32:47.677Z,93.18
2019-01-15T07:33:47.660Z,93.56
2019-01-15T07:34:47.644Z,93.47
2019-01-15T07:35:47.626Z,93.37
2019-01-15T07:36:47.605Z,93.37
2019-01-15T07:37:47.585Z,93.37
2019-01-15T07:38:47.579Z,93.28
2019-01-15T07:39:47.545Z,93.47
2019-01-15T07:40:47.558Z,93.28
2019-01-15T07:41:47.507Z,93.18
2019-01-15T07:42:47.488Z,93.47
2019-01-15T07:43:47.468Z,93.37
2019-01-15T07:44:47.446Z,93.47
2019-01-15T07:45:47.431Z,93.56
2019-01-15T07:46:47.410Z,94.03
2019-01-15T07:47:47.397Z,94.89
2019-01-15T07:48:47.375Z,96.02
2019-01-15T07:49:47.358Z,96.49
2019-01-15T07:50:47.332Z,96.02
2019-01-15T07:51:47.312Z,95.50
2019-01-15T07:52:47.331Z,94.93
2019-01-15T07:53:47.282Z,94.22
2019-01-15T07:54:47.258Z,94.56
2019-01-15T07:55:47.240Z,94.46
2019-01-15T07:56:47.218Z,94.08
2019-01-15T07:57:47.203Z,94.37
2019-01-15T07:58:47.178Z,93.32
2019-01-15T07:59:47.162Z,93.70
2019-01-15T08:00:47.138Z,93.61
2019-01-15T08:01:47.130Z,93.70
2019-01-15T08:02:47.107Z,93.70
2019-01-15T08:03:47.087Z,93.51
2019-01-15T08:04:47.065Z,93.13
2019-01-15T08:05:47.049Z,92.10
2019-01-15T08:06:47.031Z,91.34
2019-01-15T08:07:47.010Z,90.49
2019-01-15T08:08:46.992Z,89.59
2019-01-15T08:09:46.972Z,89.69
2019-01-15T08:10:46.951Z,90.35
2019-01-15T08:11:46.928Z,90.35
2019-01-15T08:12:46.913Z,91.20
2019-01-15T08:13:46.901Z,92.14
2019-01-15T08:14:46.871Z,91.58
2019-01-15T08:15:46.861Z,91.58
2019-01-15T08:16:46.837Z,91.77
2019-01-15T08:17:46.816Z,91.72
2019-01-15T08:18:46.801Z,91.72
2019-01-15T08:19:46.780Z,91.91
2019-01-15T08:20:46.756Z,92.38
2019-01-15T08:21:46.746Z,92.00
2019-01-15T08:22:46.753Z,92.29
2019-01-15T08:23:46.700Z,91.05
2019-01-15T08:24:46.684Z,90.20
2019-01-15T08:25:46.671Z,89.36
2019-01-15T08:26:46.643Z,89.17
2019-01-15T08:27:46.621Z,89.17
2019-01-15T08:28:46.606Z,89.07
2019-01-15T08:29:46.591Z,89.45
2019-01-15T08:30:46.569Z,90.01
2019-01-15T08:31:46.548Z,89.73
2019-01-15T08:32:46.532Z,89.26
2019-01-15T08:33:46.510Z,88.88
2019-01-15T08:34:46.488Z,88.98
2019-01-15T08:35:46.474Z,88.31
2019-01-15T08:36:46.454Z,89.12
2019-01-15T08:37:46.438Z,89.69
2019-01-15T08:38:46.418Z,89.59
2019-01-15T08:39:46.398Z,89.02
2019-01-15T08:40:46.376Z,88.93
2019-01-15T08:41:46.363Z,89.21
2019-01-15T08:42:46.337Z,88.45
2019-01-15T08:43:46.327Z,88.74
2019-01-15T08:44:46.301Z,88.36
2019-01-15T08:45:46.291Z,87.51
2019-01-15T08:46:46.268Z,87.13
2019-01-15T08:47:46.249Z,86.18
2019-01-15T08:48:46.231Z,85.33
2019-01-15T08:49:46.212Z,85.14
2019-01-15T08:50:46.192Z,85.19
2019-01-15T08:51:46.176Z,85.90
2019-01-15T08:52:46.154Z,85.52
2019-01-15T08:53:46.138Z,85.71
2019-01-15T08:54:46.116Z,86.37
2019-01-15T08:55:46.098Z,86.75
2019-01-15T08:56:46.080Z,86.47
2019-01-15T08:57:46.065Z,86.56
2019-01-15T08:58:46.046Z,86.47
2019-01-15T08:59:46.025Z,86.47
2019-01-15T09:00:46.005Z,86.66
2019-01-15T09:01:45.991Z,86.66
2019-01-15T09:02:45.965Z,85.99
2019-01-15T09:03:45.950Z,84.95
2019-01-15T09:04:45.933Z,84.20
2019-01-15T09:05:45.913Z,83.06
2019-01-15T09:06:45.896Z,83.25
2019-01-15T09:07:45.876Z,83.06
2019-01-15T09:08:45.856Z,83.34
2019-01-15T09:09:45.842Z,82.87
2019-01-15T09:10:45.822Z,83.72
2019-01-15T09:11:45.809Z,84.01
2019-01-15T09:12:45.785Z,84.23
2019-01-15T09:13:45.769Z,84.42
2019-01-15T09:14:45.747Z,84.05
2019-01-15T09:15:45.731Z,83.67
2019-01-15T09:16:45.715Z,83.86
2019-01-15T09:17:45.692Z,83.76
2019-01-15T09:18:45.682Z,83.48
2019-01-15T09:19:45.656Z,83.39
2019-01-15T09:20:45.639Z,83.20
2019-01-15T09:21:45.625Z,81.77
2019-01-15T09:22:45.603Z,81.68
2019-01-15T09:23:45.589Z,82.06
2019-01-15T09:24:45.572Z,81.77
2019-01-15T09:25:45.549Z,81.34
2019-01-15T09:26:45.537Z,81.21
2019-01-15T09:27:45.517Z,81.59
2019-01-15T09:28:45.493Z,81.49
2019-01-15T09:29:45.478Z,81.49
2019-01-15T09:30:45.464Z,81.53
2019-01-15T09:31:45.442Z,81.72
2019-01-15T09:32:45.428Z,81.44
2019-01-15T09:33:45.406Z,80.83
2019-01-15T09:34:45.390Z,80.87
2019-01-15T09:35:45.368Z,80.49
2019-01-15T09:36:45.348Z,80.58
2019-01-15T09:37:45.331Z,80.58
2019-01-15T09:38:45.315Z,79.50
2019-01-15T09:39:45.299Z,79.45
2019-01-15T09:40:45.282Z,79.69
2019-01-15T09:41:45.263Z,79.32
2019-01-15T09:42:45.245Z,80.55
2019-01-15T09:43:45.237Z,79.98
2019-01-15T09:44:45.211Z,80.93
2019-01-15T09:45:45.192Z,81.25
2019-01-15T09:46:45.176Z,81.34
2019-01-15T09:47:45.156Z,80.21
2019-01-15T09:48:45.142Z,79.26
2019-01-15T09:49:45.123Z,79.26
2019-01-15T09:50:45.110Z,78.73
2019-01-15T09:51:45.095Z,78.07
2019-01-15T09:52:45.069Z,77.59
2019-01-15T09:53:45.048Z,76.40
2019-01-15T09:54:45.034Z,74.60
2019-01-15T09:55:45.016Z,73.84
2019-01-15T09:56:45.002Z,73.08
2019-01-15T09:57:44.986Z,72.33
2019-01-15T09:58:44.966Z,72.64
2019-01-15T09:59:44.951Z,72.27
2019-01-15T10:00:44.930Z,72.45
2019-01-15T10:01:44.918Z,72.27
2019-01-15T10:02:44.895Z,72.97
2019-01-15T10:03:44.883Z,72.21
2019-01-15T10:04:44.867Z,70.40
2019-01-15T10:05:44.849Z,69.84
2019-01-15T10:06:44.830Z,68.83
2019-01-15T10:07:44.817Z,68.54
2019-01-15T10:08:44.801Z,67.69
2019-01-15T10:09:44.784Z,67.31
2019-01-15T10:10:44.766Z,67.02
2019-01-15T10:11:44.749Z,66.39
2019-01-15T10:12:44.733Z,66.17
2019-01-15T10:13:44.720Z,64.56
2019-01-15T10:14:44.705Z,64.84
2019-01-15T10:15:44.689Z,65.03
2019-01-15T10:16:44.672Z,64.08
2019-01-15T10:17:44.654Z,65.50
2019-01-15T10:18:44.639Z,64.46
2019-01-15T10:19:45.304Z,64.94
2019-01-15T10:20:44.608Z,64.46
2019-01-15T10:21:44.597Z,64.56
2019-01-15T10:22:44.577Z,65.44
2019-01-15T10:23:44.565Z,64.30
2019-01-15T10:24:44.555Z,63.54
2019-01-15T10:25:44.528Z,64.49
2019-01-15T10:26:44.518Z,63.45
2019-01-15T10:27:44.518Z,63.35
2019-01-15T10:28:44.489Z,64.02
2019-01-15T10:29:44.475Z,64.24
2019-01-15T10:30:44.456Z,64.34
2019-01-15T10:31:44.440Z,64.90
2019-01-15T10:32:44.428Z,64.34
2019-01-15T10:33:44.415Z,63.29
2019-01-15T10:34:44.397Z,61.68
2019-01-15T10:35:44.387Z,60.16
2019-01-15T10:36:44.369Z,59.11
2019-01-15T10:37:44.353Z,59.20
2019-01-15T10:38:44.339Z,59.77
2019-01-15T10:39:44.321Z,60.53
2019-01-15T10:40:44.309Z,60.41
2019-01-15T10:41:44.294Z,61.42
2019-01-15T10:42:44.280Z,62.34
2019-01-15T10:43:44.261Z,63.67
2019-01-15T10:44:48.622Z,65.09
2019-01-15T10:45:44.238Z,65.66
2019-01-15T10:46:44.218Z,66.33
2019-01-15T10:47:44.211Z,66.77
2019-01-15T10:48:44.194Z,67.52
2019-01-15T10:49:44.194Z,67.62
2019-01-15T10:50:44.164Z,67.62
2019-01-15T10:51:44.149Z,66.77
2019-01-15T10:52:44.137Z,67.43
2019-01-15T10:53:44.127Z,67.33
2019-01-15T10:54:44.109Z,67.43
2019-01-15T10:55:44.095Z,66.67
2019-01-15T10:56:44.079Z,66.48
2019-01-15T10:57:44.062Z,66.29
2019-01-15T10:58:44.044Z,66.99
2019-01-15T10:59:44.024Z,67.75
2019-01-15T11:00:44.021Z,67.59
2019-01-15T11:01:44.001Z,67.88
2019-01-15T11:02:43.986Z,66.58
2019-01-15T11:03:43.974Z,66.39
2019-01-15T11:04:43.956Z,62.88
2019-01-15T11:05:43.941Z,61.93
2019-01-15T11:06:43.927Z,62.15
2019-01-15T11:07:43.917Z,63.10
2019-01-15T11:08:43.905Z,62.53
2019-01-15T11:09:43.883Z,61.61
2019-01-15T11:10:43.872Z,61.52
2019-01-15T11:11:43.855Z,59.99
2019-01-15T11:12:43.844Z,58.47
2019-01-15T11:13:43.834Z,57.21
2019-01-15T11:14:43.810Z,57.30
2019-01-15T11:15:43.804Z,59.68
2019-01-15T11:16:43.788Z,59.99
2019-01-15T11:17:43.770Z,58.35
2019-01-15T11:18:43.758Z,57.50
2019-01-15T11:19:43.747Z,58.06
2019-01-15T11:20:43.732Z,57.90
2019-01-15T11:21:43.719Z,57.90
2019-01-15T11:22:43.697Z,58.00
2019-01-15T11:23:43.689Z,57.43
2019-01-15T11:24:43.677Z,56.83
2019-01-15T11:25:43.664Z,56.73
2019-01-15T11:26:43.646Z,56.73
2019-01-15T11:27:43.630Z,57.11
2019-01-15T11:28:43.616Z,57.11
2019-01-15T11:29:43.605Z,58.18
2019-01-15T11:30:43.589Z,57.52
2019-01-15T11:31:43.575Z,56.67
2019-01-15T11:32:43.565Z,55.81
2019-01-15T11:33:43.553Z,55.17
2019-01-15T11:34:43.538Z,54.89
2019-01-15T11:35:43.524Z,53.84
2019-01-15T11:36:43.511Z,53.72
2019-01-15T11:37:43.496Z,53.53
2019-01-15T11:38:43.482Z,53.91
2019-01-15T11:39:43.468Z,53.43
2019-01-15T11:40:43.456Z,53.15
2019-01-15T11:41:43.448Z,53.63
2019-01-15T11:42:43.426Z,53.81
2019-01-15T11:43:43.418Z,54.57
2019-01-15T11:44:43.403Z,56.48
2019-01-15T11:45:43.388Z,57.04
2019-01-15T11:46:43.375Z,56.57
2019-01-15T11:47:43.365Z,57.55
2019-01-15T11:48:43.351Z,58.50
2019-01-15T11:49:43.334Z,59.74
2019-01-15T11:50:43.325Z,59.83
2019-01-15T11:51:43.311Z,59.48
2019-01-15T11:52:43.297Z,59.48
2019-01-15T11:53:43.285Z,58.44
2019-01-15T11:54:43.273Z,57.58
2019-01-15T11:55:43.256Z,57.04
2019-01-15T11:56:43.242Z,57.04
2019-01-15T11:57:43.233Z,57.42
2019-01-15T11:58:43.220Z,57.07
2019-01-15T11:59:43.207Z,56.40
2019-01-15T12:00:43.197Z,55.26
2019-01-15T12:01:43.178Z,55.44
2019-01-15T12:02:43.166Z,54.78
2019-01-15T12:03:43.154Z,54.61
2019-01-15T12:04:43.142Z,54.33
2019-01-15T12:05:43.126Z,54.71
2019-01-15T12:06:43.118Z,55.19
2019-01-15T12:07:43.104Z,55.38
2019-01-15T12:08:43.090Z,55.00
2019-01-15T12:09:43.080Z,55.28
2019-01-15T12:10:43.065Z,54.45
2019-01-15T12:11:43.063Z,53.97
2019-01-15T12:12:43.046Z,53.02
2019-01-15T12:13:43.031Z,53.88
2019-01-15T12:14:43.021Z,54.74
2019-01-15T12:15:43.009Z,53.97
2019-01-15T12:16:42.993Z,53.88
2019-01-15T12:17:42.981Z,52.45
2019-01-15T12:18:42.972Z,52.55
2019-01-15T12:19:42.998Z,53.21
2019-01-15T12:20:42.946Z,53.81
2019-01-15T12:21:42.934Z,54.38
2019-01-15T12:22:42.938Z,53.72
2019-01-15T12:23:42.913Z,52.19
2019-01-15T12:24:42.899Z,52.38
2019-01-15T12:25:42.895Z,52.38
2019-01-15T12:26:42.878Z,52.50
2019-01-15T12:27:42.864Z,52.31
2019-01-15T12:28:42.856Z,51.93
2019-01-15T12:29:42.845Z,50.98
2019-01-15T12:30:42.832Z,49.93
2019-01-15T12:31:42.814Z,49.44
2019-01-15T12:32:42.802Z,49.54
2019-01-15T12:33:42.793Z,49.44
2019-01-15T12:34:42.782Z,49.44
2019-01-15T12:35:42.771Z,49.83
2019-01-15T12:36:42.761Z,48.59
2019-01-15T12:37:42.749Z,47.92
2019-01-15T12:38:42.741Z,47.63
2019-01-15T12:39:42.725Z,46.68
2019-01-15T12:40:42.713Z,46.39
2019-01-15T12:41:42.706Z,46.77
2019-01-15T12:42:42.688Z,46.87
2019-01-15T12:43:42.678Z,46.47
2019-01-15T12:44:42.666Z,47.13
2019-01-15T12:45:42.656Z,47.89
2019-01-15T12:46:42.648Z,47.61
2019-01-15T12:47:42.635Z,48.28
2019-01-15T12:48:42.624Z,47.61
2019-01-15T12:49:42.611Z,47.89
2019-01-15T12:50:42.612Z,48.75
2019-01-15T12:51:42.594Z,47.23
2019-01-15T12:52:42.579Z,46.47